Nearby METAR Reports

 

KSBP - San Luis Obispo, California, USA
Distance from station: S 14mi, 22km
Updated: Tue, 21-Aug-2018 5:56am
Overcast
Overcast
 Wind from WNW
Wind: WNW 5 mph , 7 km/h
Temperature: 59°F , 15°C
Dew Point: 55°F , 13°C
Humidity: 88%
Barometer: 1014.6 hPa
Clouds: Overcast
Visibility: 8 miles , 13 km
Cloud details: Overcast 900 ft
2018/08/21 12:56 KSBP 211256Z 30004KT 8SM OVC009 15/13 A2996 RMK AO2 SLP145 T01500128
KPRB - Paso Robles, California, USA
Distance from station: N 16mi, 26km
Updated: Tue, 21-Aug-2018 5:53am
Mist, Overcast
Mist, Overcast
 Wind from NW
Wind: NW 5 mph , 7 km/h
Temperature: 55°F , 13°C
Dew Point: 54°F , 12°C
Humidity: 94%
Barometer: 1014.6 hPa
Summary: Mist
Clouds: Overcast
Visibility: 5 miles , 8 km
Cloud details: Overcast 300 ft
2018/08/21 12:53 KPRB 211253Z AUTO 32004KT 5SM BR OVC003 13/12 A2996 RMK AO2 SLP139 T01330122
 
KSMX - Santa Maria, California, USA
Distance from station: SSE 38mi, 62km
Updated: Tue, 21-Aug-2018 5:51am
Mist, Overcast
Mist, Overcast
 Wind from NW
Wind: NW 6 mph , 9 km/h
Temperature: 61°F , 16°C
Dew Point: 57°F , 14°C
Humidity: 88%
Barometer: 1014.6 hPa
Summary: Mist
Clouds: Overcast
Visibility: 5 miles , 8 km
Cloud details: Overcast 500 ft
2018/08/21 12:51 KSMX 211251Z 32005KT 5SM BR OVC005 16/14 A2996 RMK AO2 SLP146 T01610139 $
KVBG - Vandenberg Afb, California, USA
Distance from station: S 48mi, 78km
Updated: Tue, 21-Aug-2018 6:28am
Mist, Overcast
Mist, Overcast
 Wind from NNE
Wind: NNE 5 mph , 7 km/h
Temperature: 57°F , 14°C
Dew Point: 55°F , 13°C
Humidity: 94%
Barometer: 1014.9 hPa
Summary: Mist
Clouds: Overcast
Visibility: 2 3/4 miles , 5 km
Cloud details: Overcast 200 ft
2018/08/21 13:28 KVBG 211328Z AUTO 03004KT 2 3/4SM BR OVC002 14/13 A2997 RMK AO2 SLP151